KLM1199 KMEM-KMHT
Flight info
| Callsign | KLM1199 |
|---|---|
| Flight time | 2h 9m |
| Altitude | 39000 |
| Route | GOETZ7 DIYAB YOCKY LUISE PSB HNK SMYTH ROZZE2 |
| Aircraft | B77W/H-SDE1E2E3FGHIJ2J3J4J5M1RWXY/LB1D1 |
Departure
| Time | 2026-05-04 01:11 |
|---|---|
| Airport | Memphis International Airport (KMEM) |
Arrival
| Time | 2026-05-04 03:21 |
|---|---|
| Airport | Manchester-Boston Regional Airport (KMHT) |
| Time | Latitude | Longitude | Altitude | Speed | Heading |
|---|---|---|---|---|---|
| 2026-05-04 00:59 | 35.03185 | -89.96662 | 317 ft | 0 kts | 284° |
| 2026-05-04 01:03 | 35.03174 | -89.96719 | 319 ft | 9 kts | 252° |
| 2026-05-04 01:04 | 35.03166 | -89.96794 | 322 ft | 9 kts | 270° |
| 2026-05-04 01:04 | 35.03195 | -89.96855 | 323 ft | 8 kts | 328° |
| 2026-05-04 01:04 | 35.03235 | -89.96861 | 323 ft | 0 kts | 4° |
| 2026-05-04 01:05 | 35.03236 | -89.96861 | 324 ft | 2 kts | 4° |
| 2026-05-04 01:05 | 35.03297 | -89.96857 | 321 ft | 11 kts | 1° |
| 2026-05-04 01:06 | 35.03379 | -89.96856 | 321 ft | 12 kts | 0° |
| 2026-05-04 01:06 | 35.03463 | -89.96855 | 318 ft | 12 kts | 2° |
| 2026-05-04 01:06 | 35.03547 | -89.96852 | 319 ft | 12 kts | 1° |
| 2026-05-04 01:06 | 35.03636 | -89.96854 | 319 ft | 14 kts | 359° |
| 2026-05-04 01:07 | 35.03740 | -89.96863 | 317 ft | 15 kts | 344° |
| 2026-05-04 01:07 | 35.03800 | -89.96962 | 317 ft | 15 kts | 279° |
| 2026-05-04 01:07 | 35.03839 | -89.97076 | 316 ft | 16 kts | 332° |
| 2026-05-04 01:07 | 35.03959 | -89.97093 | 312 ft | 19 kts | 360° |
| 2026-05-04 01:08 | 35.04096 | -89.97094 | 312 ft | 20 kts | 359° |
| 2026-05-04 01:08 | 35.04245 | -89.97098 | 305 ft | 23 kts | 359° |
| 2026-05-04 01:08 | 35.04405 | -89.97076 | 304 ft | 23 kts | 8° |
| 2026-05-04 01:08 | 35.04568 | -89.97065 | 302 ft | 23 kts | 359° |
| 2026-05-04 01:09 | 35.04731 | -89.97066 | 300 ft | 23 kts | 359° |
| 2026-05-04 01:09 | 35.04770 | -89.97067 | 299 ft | 0 kts | 358° |
| 2026-05-04 01:09 | 35.04825 | -89.97074 | 299 ft | 11 kts | 343° |
| 2026-05-04 01:10 | 35.04871 | -89.97139 | 301 ft | 11 kts | 280° |
| 2026-05-04 01:10 | 35.04872 | -89.97234 | 299 ft | 12 kts | 264° |
| 2026-05-04 01:10 | 35.04810 | -89.97292 | 298 ft | 12 kts | 184° |
| 2026-05-04 01:10 | 35.04787 | -89.97292 | 298 ft | 0 kts | 180° |
| 2026-05-04 01:11 | 35.04741 | -89.97292 | 301 ft | 31 kts | 180° |
| 2026-05-04 01:11 | 35.04228 | -89.97281 | 308 ft | 114 kts | 178° |
| 2026-05-04 01:11 | 35.03202 | -89.97269 | 353 ft | 176 kts | 180° |
| 2026-05-04 01:11 | 35.01938 | -89.97277 | 1039 ft | 176 kts | 181° |
| 2026-05-04 01:12 | 35.00781 | -89.97311 | 2177 ft | 163 kts | 185° |
| 2026-05-04 01:12 | 34.99607 | -89.97353 | 2760 ft | 180 kts | 183° |
| 2026-05-04 01:12 | 34.98274 | -89.97056 | 2979 ft | 212 kts | 163° |
| 2026-05-04 01:12 | 34.96798 | -89.96363 | 3310 ft | 239 kts | 163° |
| 2026-05-04 01:13 | 34.95227 | -89.95530 | 3830 ft | 257 kts | 150° |
| 2026-05-04 01:13 | 34.93908 | -89.93966 | 4506 ft | 271 kts | 129° |
| 2026-05-04 01:13 | 34.92899 | -89.91991 | 4965 ft | 276 kts | 112° |
| 2026-05-04 01:13 | 34.92663 | -89.89693 | 5450 ft | 278 kts | 82° |
| 2026-05-04 01:14 | 34.93250 | -89.87479 | 6333 ft | 273 kts | 61° |
| 2026-05-04 01:14 | 34.94133 | -89.85403 | 7049 ft | 280 kts | 59° |
| 2026-05-04 01:14 | 34.95074 | -89.83288 | 7838 ft | 286 kts | 59° |
| 2026-05-04 01:14 | 34.96029 | -89.81152 | 8761 ft | 287 kts | 59° |
| 2026-05-04 01:15 | 34.96983 | -89.79011 | 9736 ft | 288 kts | 59° |
| 2026-05-04 01:15 | 34.97944 | -89.76844 | 10508 ft | 295 kts | 59° |
| 2026-05-04 01:15 | 34.98955 | -89.74557 | 10830 ft | 321 kts | 60° |
| 2026-05-04 01:15 | 35.00059 | -89.72050 | 11061 ft | 350 kts | 60° |
| 2026-05-04 01:16 | 35.01251 | -89.69330 | 11409 ft | 373 kts | 60° |
| 2026-05-04 01:16 | 35.02471 | -89.66530 | 12196 ft | 384 kts | 60° |
| 2026-05-04 01:16 | 35.03731 | -89.63627 | 13202 ft | 390 kts | 60° |
| 2026-05-04 01:16 | 35.05013 | -89.60667 | 14228 ft | 396 kts | 60° |
| 2026-05-04 01:17 | 35.06309 | -89.57675 | 15163 ft | 402 kts | 59° |
| 2026-05-04 01:17 | 35.07625 | -89.54635 | 16106 ft | 407 kts | 59° |
| 2026-05-04 01:17 | 35.08955 | -89.51560 | 17030 ft | 413 kts | 59° |
| 2026-05-04 01:17 | 35.10306 | -89.48436 | 17935 ft | 419 kts | 58° |
| 2026-05-04 01:18 | 35.11680 | -89.45253 | 18773 ft | 425 kts | 58° |
| 2026-05-04 01:18 | 35.13068 | -89.42037 | 19548 ft | 431 kts | 58° |
| 2026-05-04 01:18 | 35.14476 | -89.38770 | 20312 ft | 438 kts | 58° |
| 2026-05-04 01:18 | 35.15903 | -89.35456 | 21062 ft | 443 kts | 58° |
| 2026-05-04 01:19 | 35.17350 | -89.32090 | 21829 ft | 449 kts | 58° |
| 2026-05-04 01:19 | 35.18815 | -89.28681 | 22561 ft | 455 kts | 58° |
| 2026-05-04 01:19 | 35.20298 | -89.25228 | 23272 ft | 461 kts | 58° |
| 2026-05-04 01:19 | 35.21698 | -89.21664 | 23924 ft | 470 kts | 63° |
| 2026-05-04 01:20 | 35.22804 | -89.17865 | 24522 ft | 478 kts | 69° |
| 2026-05-04 01:20 | 35.23764 | -89.13966 | 25125 ft | 481 kts | 69° |
| 2026-05-04 01:20 | 35.24935 | -89.10130 | 25705 ft | 483 kts | 62° |
| 2026-05-04 01:20 | 35.26426 | -89.06441 | 26277 ft | 483 kts | 56° |
| 2026-05-04 01:21 | 35.28207 | -89.02957 | 26838 ft | 485 kts | 52° |
| 2026-05-04 01:21 | 35.30054 | -88.99482 | 27381 ft | 489 kts | 52° |
| 2026-05-04 01:21 | 35.31897 | -88.96022 | 27924 ft | 493 kts | 52° |
| 2026-05-04 01:21 | 35.33773 | -88.92483 | 28441 ft | 497 kts | 52° |
| 2026-05-04 01:22 | 35.35650 | -88.88918 | 28923 ft | 501 kts | 52° |
| 2026-05-04 01:22 | 35.37539 | -88.85306 | 29385 ft | 505 kts | 52° |
| 2026-05-04 01:22 | 35.39436 | -88.81660 | 29887 ft | 507 kts | 52° |
| 2026-05-04 01:22 | 35.41325 | -88.78014 | 30438 ft | 506 kts | 52° |
| 2026-05-04 01:23 | 35.43205 | -88.74374 | 31020 ft | 504 kts | 52° |
| 2026-05-04 01:23 | 35.45076 | -88.70749 | 31627 ft | 501 kts | 51° |
| 2026-05-04 01:23 | 35.46939 | -88.67139 | 32186 ft | 500 kts | 51° |
| 2026-05-04 01:23 | 35.48801 | -88.63530 | 32702 ft | 499 kts | 51° |
| 2026-05-04 01:24 | 35.50652 | -88.59940 | 33212 ft | 498 kts | 51° |
| 2026-05-04 01:24 | 35.52502 | -88.56353 | 33732 ft | 496 kts | 51° |
| 2026-05-04 01:24 | 35.54347 | -88.52768 | 34237 ft | 495 kts | 51° |
| 2026-05-04 01:24 | 35.56184 | -88.49198 | 34634 ft | 495 kts | 51° |
| 2026-05-04 01:25 | 35.58020 | -88.45627 | 34975 ft | 495 kts | 51° |
| 2026-05-04 01:25 | 35.59858 | -88.42050 | 35325 ft | 496 kts | 51° |
| 2026-05-04 01:25 | 35.61650 | -88.38556 | 35691 ft | 496 kts | 51° |
| 2026-05-04 01:25 | 35.63488 | -88.34967 | 36055 ft | 496 kts | 51° |
| 2026-05-04 01:26 | 35.65321 | -88.31385 | 36387 ft | 496 kts | 51° |
| 2026-05-04 01:26 | 35.67136 | -88.27835 | 36716 ft | 496 kts | 51° |
| 2026-05-04 01:26 | 35.68976 | -88.24232 | 37039 ft | 496 kts | 51° |
| 2026-05-04 01:26 | 35.70811 | -88.20633 | 37364 ft | 496 kts | 51° |
| 2026-05-04 01:27 | 35.72646 | -88.17032 | 37683 ft | 496 kts | 51° |
| 2026-05-04 01:27 | 35.74480 | -88.13430 | 37991 ft | 497 kts | 51° |
| 2026-05-04 01:27 | 35.76311 | -88.09829 | 38295 ft | 497 kts | 52° |
| 2026-05-04 01:27 | 35.78148 | -88.06213 | 38602 ft | 497 kts | 52° |
| 2026-05-04 01:28 | 35.79982 | -88.02597 | 38857 ft | 497 kts | 52° |
| 2026-05-04 01:28 | 35.81811 | -87.98990 | 39034 ft | 498 kts | 52° |
| 2026-05-04 01:28 | 35.83649 | -87.95362 | 39064 ft | 499 kts | 52° |
| 2026-05-04 01:29 | 35.87298 | -87.88139 | 39070 ft | 493 kts | 52° |
| 2026-05-04 01:29 | 35.90324 | -87.82134 | 39081 ft | 490 kts | 52° |
| 2026-05-04 01:30 | 35.93901 | -87.75035 | 39085 ft | 490 kts | 52° |
| 2026-05-04 01:30 | 35.97495 | -87.67889 | 39088 ft | 490 kts | 52° |
| 2026-05-04 01:31 | 36.01090 | -87.60724 | 39091 ft | 491 kts | 52° |
| 2026-05-04 01:31 | 36.04690 | -87.53532 | 39090 ft | 493 kts | 52° |
| 2026-05-04 01:32 | 36.08298 | -87.46308 | 39089 ft | 494 kts | 52° |
| 2026-05-04 01:32 | 36.11913 | -87.39054 | 39095 ft | 496 kts | 52° |
| 2026-05-04 01:33 | 36.15534 | -87.31772 | 39088 ft | 497 kts | 52° |
| 2026-05-04 01:33 | 36.19131 | -87.24524 | 39078 ft | 498 kts | 52° |
| 2026-05-04 01:34 | 36.22757 | -87.17200 | 39065 ft | 498 kts | 53° |
| 2026-05-04 01:34 | 36.26379 | -87.09870 | 39063 ft | 499 kts | 53° |
| 2026-05-04 01:35 | 36.29998 | -87.02528 | 39058 ft | 499 kts | 53° |
| 2026-05-04 01:35 | 36.33617 | -86.95172 | 39054 ft | 499 kts | 53° |
| 2026-05-04 01:36 | 36.37231 | -86.87810 | 39053 ft | 499 kts | 53° |
| 2026-05-04 01:36 | 36.40833 | -86.80455 | 39064 ft | 499 kts | 53° |
| 2026-05-04 01:37 | 36.44440 | -86.73077 | 39068 ft | 499 kts | 53° |
| 2026-05-04 01:37 | 36.48042 | -86.65691 | 39074 ft | 500 kts | 53° |
| 2026-05-04 01:38 | 36.51642 | -86.58294 | 39079 ft | 500 kts | 53° |
| 2026-05-04 01:38 | 36.55220 | -86.50925 | 39083 ft | 501 kts | 53° |
| 2026-05-04 01:39 | 36.58824 | -86.43486 | 39078 ft | 502 kts | 53° |
| 2026-05-04 01:39 | 36.62425 | -86.36036 | 39080 ft | 503 kts | 53° |
| 2026-05-04 01:40 | 36.66031 | -86.28560 | 39076 ft | 504 kts | 53° |
| 2026-05-04 01:40 | 36.69638 | -86.21067 | 39064 ft | 505 kts | 53° |
| 2026-05-04 01:41 | 36.73252 | -86.13540 | 39063 ft | 506 kts | 54° |
| 2026-05-04 01:41 | 36.76844 | -86.06044 | 39061 ft | 506 kts | 54° |
| 2026-05-04 01:42 | 36.80454 | -85.98491 | 39062 ft | 507 kts | 54° |
| 2026-05-04 01:42 | 36.84072 | -85.90905 | 39063 ft | 508 kts | 54° |
| 2026-05-04 01:43 | 36.87687 | -85.83307 | 39058 ft | 509 kts | 54° |
| 2026-05-04 01:43 | 36.91282 | -85.75735 | 39054 ft | 510 kts | 54° |
| 2026-05-04 01:44 | 36.94895 | -85.68108 | 39061 ft | 510 kts | 54° |
| 2026-05-04 01:44 | 36.98509 | -85.60461 | 39076 ft | 510 kts | 54° |
| 2026-05-04 01:45 | 37.02119 | -85.52805 | 39067 ft | 511 kts | 54° |
| 2026-05-04 01:45 | 37.07526 | -85.41301 | 39074 ft | 511 kts | 54° |
| 2026-05-04 01:46 | 37.11127 | -85.33619 | 39080 ft | 512 kts | 55° |
| 2026-05-04 01:46 | 37.14737 | -85.25903 | 39084 ft | 512 kts | 55° |
| 2026-05-04 01:47 | 37.18335 | -85.18190 | 39087 ft | 513 kts | 55° |
| 2026-05-04 01:47 | 37.21940 | -85.10447 | 39084 ft | 513 kts | 55° |
| 2026-05-04 01:48 | 37.25521 | -85.02737 | 39084 ft | 514 kts | 55° |
| 2026-05-04 01:48 | 37.29117 | -84.94975 | 39083 ft | 515 kts | 55° |
| 2026-05-04 01:49 | 37.32716 | -84.87189 | 39072 ft | 516 kts | 55° |
| 2026-05-04 01:49 | 37.36317 | -84.79379 | 39077 ft | 517 kts | 56° |
| 2026-05-04 01:50 | 37.39918 | -84.71551 | 39077 ft | 518 kts | 56° |
| 2026-05-04 01:50 | 37.43531 | -84.63676 | 39073 ft | 518 kts | 56° |
| 2026-05-04 01:51 | 37.47136 | -84.55802 | 39072 ft | 519 kts | 56° |
| 2026-05-04 01:51 | 37.50736 | -84.47920 | 39072 ft | 520 kts | 56° |
| 2026-05-04 01:52 | 37.54315 | -84.40062 | 39076 ft | 520 kts | 56° |
| 2026-05-04 01:52 | 37.57936 | -84.32095 | 39075 ft | 521 kts | 56° |
| 2026-05-04 01:53 | 37.61537 | -84.24150 | 39072 ft | 522 kts | 56° |
| 2026-05-04 01:53 | 37.65130 | -84.16253 | 39078 ft | 521 kts | 54° |
| 2026-05-04 01:54 | 37.69278 | -84.08721 | 39078 ft | 518 kts | 49° |
| 2026-05-04 01:54 | 37.73599 | -84.01442 | 39068 ft | 518 kts | 48° |
| 2026-05-04 01:55 | 37.77890 | -83.94184 | 39065 ft | 520 kts | 49° |
| 2026-05-04 01:55 | 37.82191 | -83.86813 | 39067 ft | 521 kts | 49° |
| 2026-05-04 01:56 | 37.86478 | -83.79411 | 39071 ft | 521 kts | 49° |
| 2026-05-04 01:56 | 37.90764 | -83.71988 | 39066 ft | 522 kts | 49° |
| 2026-05-04 01:57 | 37.95044 | -83.64567 | 39038 ft | 522 kts | 49° |
| 2026-05-04 01:57 | 37.99332 | -83.57120 | 39064 ft | 523 kts | 49° |
| 2026-05-04 01:58 | 38.03614 | -83.49664 | 39047 ft | 523 kts | 49° |
| 2026-05-04 01:58 | 38.07894 | -83.42196 | 39059 ft | 523 kts | 49° |
| 2026-05-04 01:59 | 38.12151 | -83.34750 | 39063 ft | 524 kts | 49° |
| 2026-05-04 01:59 | 38.16430 | -83.27251 | 39057 ft | 524 kts | 49° |
| 2026-05-04 02:00 | 38.20715 | -83.19722 | 39058 ft | 525 kts | 49° |
| 2026-05-04 02:00 | 38.24996 | -83.12183 | 39053 ft | 525 kts | 49° |
| 2026-05-04 02:01 | 38.29273 | -83.04633 | 39047 ft | 525 kts | 49° |
| 2026-05-04 02:01 | 38.33522 | -82.97116 | 39050 ft | 525 kts | 50° |
| 2026-05-04 02:02 | 38.37787 | -82.89551 | 39054 ft | 525 kts | 50° |
| 2026-05-04 02:02 | 38.42051 | -82.81974 | 39046 ft | 525 kts | 50° |
| 2026-05-04 02:03 | 38.46305 | -82.74394 | 39054 ft | 525 kts | 50° |
| 2026-05-04 02:03 | 38.50556 | -82.66804 | 39051 ft | 525 kts | 50° |
| 2026-05-04 02:04 | 38.54801 | -82.59207 | 39063 ft | 525 kts | 50° |
| 2026-05-04 02:04 | 38.59035 | -82.51610 | 39053 ft | 525 kts | 50° |
| 2026-05-04 02:05 | 38.63265 | -82.44004 | 39055 ft | 524 kts | 50° |
| 2026-05-04 02:05 | 38.67465 | -82.36434 | 39059 ft | 524 kts | 50° |
| 2026-05-04 02:06 | 38.71674 | -82.28829 | 39046 ft | 523 kts | 50° |
| 2026-05-04 02:06 | 38.75876 | -82.21220 | 39046 ft | 523 kts | 50° |
| 2026-05-04 02:07 | 38.80070 | -82.13605 | 39052 ft | 522 kts | 50° |
| 2026-05-04 02:07 | 38.84254 | -82.05995 | 39048 ft | 521 kts | 50° |
| 2026-05-04 02:08 | 38.88424 | -81.98388 | 39054 ft | 521 kts | 51° |
| 2026-05-04 02:08 | 38.92583 | -81.90786 | 39049 ft | 520 kts | 51° |
| 2026-05-04 02:09 | 38.96733 | -81.83181 | 39048 ft | 519 kts | 51° |
| 2026-05-04 02:09 | 39.00873 | -81.75576 | 39046 ft | 519 kts | 51° |
| 2026-05-04 02:10 | 39.05002 | -81.67975 | 39048 ft | 518 kts | 51° |
| 2026-05-04 02:10 | 39.09121 | -81.60374 | 39047 ft | 518 kts | 51° |
| 2026-05-04 02:11 | 39.12564 | -81.54007 | 39043 ft | 517 kts | 51° |
| 2026-05-04 02:11 | 39.16673 | -81.46392 | 39041 ft | 518 kts | 51° |
| 2026-05-04 02:12 | 39.20759 | -81.38800 | 39042 ft | 518 kts | 51° |
| 2026-05-04 02:12 | 39.24872 | -81.31141 | 39043 ft | 519 kts | 51° |
| 2026-05-04 02:13 | 39.28979 | -81.23474 | 39046 ft | 520 kts | 51° |
| 2026-05-04 02:13 | 39.33099 | -81.15765 | 39044 ft | 521 kts | 51° |
| 2026-05-04 02:14 | 39.37213 | -81.08047 | 39041 ft | 522 kts | 51° |
| 2026-05-04 02:14 | 39.41332 | -81.00301 | 39039 ft | 522 kts | 51° |
| 2026-05-04 02:15 | 39.45443 | -80.92552 | 39038 ft | 522 kts | 52° |
| 2026-05-04 02:15 | 39.49547 | -80.84798 | 39036 ft | 522 kts | 52° |
| 2026-05-04 02:16 | 39.53643 | -80.77037 | 39041 ft | 522 kts | 52° |
| 2026-05-04 02:16 | 39.57740 | -80.69257 | 39028 ft | 522 kts | 52° |
| 2026-05-04 02:17 | 39.61791 | -80.61457 | 39040 ft | 521 kts | 52° |
| 2026-05-04 02:17 | 39.65789 | -80.53680 | 39034 ft | 521 kts | 52° |
| 2026-05-04 02:18 | 39.69810 | -80.45845 | 39041 ft | 520 kts | 52° |
| 2026-05-04 02:18 | 39.73824 | -80.38016 | 39038 ft | 520 kts | 52° |
| 2026-05-04 02:19 | 39.77829 | -80.30191 | 39050 ft | 520 kts | 52° |
| 2026-05-04 02:19 | 39.81836 | -80.22344 | 39048 ft | 520 kts | 52° |
| 2026-05-04 02:20 | 39.85831 | -80.14502 | 39049 ft | 520 kts | 52° |
| 2026-05-04 02:20 | 39.89822 | -80.06645 | 39054 ft | 520 kts | 53° |
| 2026-05-04 02:21 | 39.93809 | -79.98776 | 39048 ft | 521 kts | 53° |
| 2026-05-04 02:21 | 39.97794 | -79.90892 | 39043 ft | 521 kts | 53° |
| 2026-05-04 02:22 | 40.01780 | -79.82986 | 39049 ft | 521 kts | 53° |
| 2026-05-04 02:22 | 40.05762 | -79.75068 | 39046 ft | 522 kts | 53° |
| 2026-05-04 02:23 | 40.09720 | -79.67178 | 39049 ft | 522 kts | 53° |
| 2026-05-04 02:23 | 40.13697 | -79.59230 | 39049 ft | 523 kts | 53° |
| 2026-05-04 02:24 | 40.17674 | -79.51264 | 39049 ft | 524 kts | 53° |
| 2026-05-04 02:24 | 40.21657 | -79.43263 | 39046 ft | 524 kts | 53° |
| 2026-05-04 02:25 | 40.25637 | -79.35248 | 39054 ft | 525 kts | 53° |
| 2026-05-04 02:25 | 40.29613 | -79.27220 | 39045 ft | 526 kts | 53° |
| 2026-05-04 02:26 | 40.33592 | -79.19167 | 39048 ft | 526 kts | 53° |
| 2026-05-04 02:26 | 40.37565 | -79.11103 | 39031 ft | 526 kts | 53° |
| 2026-05-04 02:27 | 40.41534 | -79.03026 | 39027 ft | 527 kts | 53° |
| 2026-05-04 02:27 | 40.45501 | -78.94936 | 39020 ft | 527 kts | 53° |
| 2026-05-04 02:28 | 40.49470 | -78.86817 | 39020 ft | 528 kts | 53° |
| 2026-05-04 02:28 | 40.53428 | -78.78699 | 39025 ft | 528 kts | 54° |
| 2026-05-04 02:29 | 40.57384 | -78.70566 | 39023 ft | 528 kts | 54° |
| 2026-05-04 02:29 | 40.61337 | -78.62417 | 39028 ft | 528 kts | 54° |
| 2026-05-04 02:30 | 40.65287 | -78.54252 | 39027 ft | 528 kts | 54° |
| 2026-05-04 02:30 | 40.69227 | -78.46087 | 39025 ft | 528 kts | 54° |
| 2026-05-04 02:31 | 40.73163 | -78.37908 | 39006 ft | 528 kts | 54° |
| 2026-05-04 02:31 | 40.77092 | -78.29722 | 39005 ft | 528 kts | 54° |
| 2026-05-04 02:32 | 40.81020 | -78.21517 | 39010 ft | 528 kts | 54° |
| 2026-05-04 02:32 | 40.84907 | -78.13374 | 39005 ft | 528 kts | 54° |
| 2026-05-04 02:33 | 40.88813 | -78.05170 | 39003 ft | 528 kts | 54° |
| 2026-05-04 02:33 | 40.92712 | -77.96930 | 39001 ft | 528 kts | 55° |
| 2026-05-04 02:34 | 40.96466 | -77.88581 | 39005 ft | 529 kts | 56° |
| 2026-05-04 02:34 | 41.00170 | -77.80168 | 39000 ft | 529 kts | 56° |
| 2026-05-04 02:35 | 41.03876 | -77.71769 | 38998 ft | 529 kts | 56° |
| 2026-05-04 02:35 | 41.07601 | -77.63354 | 38999 ft | 529 kts | 56° |
| 2026-05-04 02:36 | 41.11300 | -77.54992 | 38983 ft | 529 kts | 56° |
| 2026-05-04 02:36 | 41.15014 | -77.46570 | 38977 ft | 528 kts | 56° |
| 2026-05-04 02:37 | 41.18716 | -77.38146 | 38971 ft | 528 kts | 56° |
| 2026-05-04 02:37 | 41.22409 | -77.29720 | 38974 ft | 528 kts | 57° |
| 2026-05-04 02:38 | 41.26097 | -77.21280 | 38969 ft | 527 kts | 57° |
| 2026-05-04 02:38 | 41.29771 | -77.12850 | 38969 ft | 527 kts | 57° |
| 2026-05-04 02:39 | 41.33422 | -77.04449 | 38969 ft | 527 kts | 57° |
| 2026-05-04 02:39 | 41.37083 | -76.96003 | 38974 ft | 526 kts | 57° |
| 2026-05-04 02:40 | 41.40735 | -76.87552 | 38975 ft | 526 kts | 57° |
| 2026-05-04 02:40 | 41.44378 | -76.79099 | 38964 ft | 526 kts | 57° |
| 2026-05-04 02:41 | 41.48018 | -76.70627 | 38958 ft | 526 kts | 57° |
| 2026-05-04 02:41 | 41.51651 | -76.62149 | 38955 ft | 526 kts | 57° |
| 2026-05-04 02:42 | 41.55278 | -76.53662 | 38956 ft | 526 kts | 57° |
| 2026-05-04 02:42 | 41.58896 | -76.45170 | 38955 ft | 526 kts | 57° |
| 2026-05-04 02:43 | 41.62509 | -76.36665 | 38950 ft | 526 kts | 57° |
| 2026-05-04 02:43 | 41.66112 | -76.28161 | 38950 ft | 526 kts | 58° |
| 2026-05-04 02:44 | 41.69709 | -76.19647 | 38946 ft | 526 kts | 58° |
| 2026-05-04 02:44 | 41.73283 | -76.11161 | 38947 ft | 525 kts | 58° |
| 2026-05-04 02:45 | 41.76888 | -76.02580 | 38946 ft | 525 kts | 58° |
| 2026-05-04 02:45 | 41.80463 | -75.94042 | 38946 ft | 525 kts | 58° |
| 2026-05-04 02:46 | 41.84014 | -75.85540 | 38948 ft | 525 kts | 58° |
| 2026-05-04 02:46 | 41.87581 | -75.76972 | 38947 ft | 525 kts | 58° |
| 2026-05-04 02:47 | 41.91143 | -75.68395 | 38953 ft | 526 kts | 58° |
| 2026-05-04 02:47 | 41.94695 | -75.59815 | 38953 ft | 526 kts | 58° |
| 2026-05-04 02:48 | 41.98243 | -75.51218 | 38950 ft | 526 kts | 58° |
| 2026-05-04 02:48 | 42.01784 | -75.42613 | 38951 ft | 526 kts | 58° |
| 2026-05-04 02:49 | 42.05326 | -75.33983 | 38958 ft | 526 kts | 59° |
| 2026-05-04 02:49 | 42.08464 | -75.25149 | 38960 ft | 527 kts | 65° |
| 2026-05-04 02:50 | 42.11300 | -75.16021 | 38954 ft | 528 kts | 65° |
| 2026-05-04 02:50 | 42.14115 | -75.06890 | 38948 ft | 528 kts | 65° |
| 2026-05-04 02:51 | 42.16958 | -74.97776 | 38947 ft | 528 kts | 65° |
| 2026-05-04 02:51 | 42.19815 | -74.88650 | 38947 ft | 527 kts | 65° |
| 2026-05-04 02:52 | 42.22184 | -74.81065 | 38951 ft | 527 kts | 65° |
| 2026-05-04 02:52 | 42.25025 | -74.71929 | 38954 ft | 527 kts | 65° |
| 2026-05-04 02:53 | 42.27857 | -74.62784 | 38948 ft | 528 kts | 65° |
| 2026-05-04 02:53 | 42.30679 | -74.53642 | 38939 ft | 528 kts | 65° |
| 2026-05-04 02:54 | 42.33493 | -74.44490 | 38937 ft | 528 kts | 66° |
| 2026-05-04 02:54 | 42.36304 | -74.35319 | 38945 ft | 528 kts | 66° |
| 2026-05-04 02:55 | 42.40512 | -74.21530 | 38841 ft | 530 kts | 66° |
| 2026-05-04 02:55 | 42.41928 | -74.16879 | 38040 ft | 537 kts | 66° |
| 2026-05-04 02:56 | 42.43336 | -74.12234 | 37320 ft | 525 kts | 66° |
| 2026-05-04 02:56 | 42.44686 | -74.07771 | 36622 ft | 513 kts | 66° |
| 2026-05-04 02:56 | 42.46041 | -74.03287 | 35911 ft | 503 kts | 65° |
| 2026-05-04 02:56 | 42.47352 | -73.98948 | 35193 ft | 494 kts | 65° |
| 2026-05-04 02:57 | 42.48647 | -73.94660 | 34401 ft | 488 kts | 65° |
| 2026-05-04 02:57 | 42.49907 | -73.90455 | 33539 ft | 487 kts | 66° |
| 2026-05-04 02:57 | 42.51012 | -73.86089 | 32588 ft | 494 kts | 72° |
| 2026-05-04 02:57 | 42.51873 | -73.81515 | 31683 ft | 506 kts | 74° |
| 2026-05-04 02:58 | 42.52698 | -73.76823 | 30732 ft | 513 kts | 74° |
| 2026-05-04 02:58 | 42.53494 | -73.72179 | 30161 ft | 498 kts | 74° |
| 2026-05-04 02:58 | 42.54264 | -73.67673 | 29449 ft | 482 kts | 74° |
| 2026-05-04 02:58 | 42.55013 | -73.63334 | 28836 ft | 465 kts | 73° |
| 2026-05-04 02:59 | 42.55749 | -73.59123 | 28269 ft | 452 kts | 73° |
| 2026-05-04 02:59 | 42.56475 | -73.55006 | 27724 ft | 446 kts | 73° |
| 2026-05-04 02:59 | 42.57204 | -73.50902 | 27174 ft | 452 kts | 73° |
| 2026-05-04 02:59 | 42.57957 | -73.46683 | 26618 ft | 468 kts | 73° |
| 2026-05-04 03:00 | 42.58738 | -73.42302 | 26022 ft | 486 kts | 73° |
| 2026-05-04 03:00 | 42.59529 | -73.37830 | 25401 ft | 486 kts | 73° |
| 2026-05-04 03:00 | 42.60307 | -73.33383 | 24793 ft | 482 kts | 73° |
| 2026-05-04 03:00 | 42.61073 | -73.28977 | 24185 ft | 477 kts | 73° |
| 2026-05-04 03:01 | 42.61832 | -73.24608 | 23594 ft | 472 kts | 73° |
| 2026-05-04 03:01 | 42.62581 | -73.20293 | 22943 ft | 468 kts | 73° |
| 2026-05-04 03:01 | 42.63322 | -73.16016 | 22301 ft | 463 kts | 73° |
| 2026-05-04 03:01 | 42.64052 | -73.11795 | 21732 ft | 456 kts | 73° |
| 2026-05-04 03:02 | 42.64774 | -73.07617 | 21173 ft | 451 kts | 73° |
| 2026-05-04 03:02 | 42.65487 | -73.03484 | 20587 ft | 447 kts | 73° |
| 2026-05-04 03:02 | 42.66191 | -72.99392 | 20031 ft | 443 kts | 73° |
| 2026-05-04 03:02 | 42.66889 | -72.95329 | 19480 ft | 439 kts | 73° |
| 2026-05-04 03:03 | 42.67579 | -72.91302 | 18930 ft | 436 kts | 73° |
| 2026-05-04 03:03 | 42.68263 | -72.87301 | 18377 ft | 433 kts | 73° |
| 2026-05-04 03:03 | 42.68940 | -72.83327 | 17788 ft | 430 kts | 72° |
| 2026-05-04 03:03 | 42.69611 | -72.79387 | 17207 ft | 426 kts | 72° |
| 2026-05-04 03:04 | 42.70272 | -72.75487 | 16746 ft | 417 kts | 72° |
| 2026-05-04 03:04 | 42.70895 | -72.71776 | 16268 ft | 400 kts | 72° |
| 2026-05-04 03:04 | 42.71492 | -72.68198 | 16012 ft | 377 kts | 72° |
| 2026-05-04 03:04 | 42.72061 | -72.64802 | 15647 ft | 359 kts | 72° |
| 2026-05-04 03:05 | 42.72604 | -72.61564 | 15237 ft | 345 kts | 71° |
| 2026-05-04 03:05 | 42.73132 | -72.58435 | 14767 ft | 335 kts | 71° |
| 2026-05-04 03:05 | 42.73652 | -72.55363 | 14180 ft | 331 kts | 71° |
| 2026-05-04 03:05 | 42.74165 | -72.52327 | 13493 ft | 329 kts | 71° |
| 2026-05-04 03:06 | 42.74677 | -72.49291 | 12769 ft | 328 kts | 71° |
| 2026-05-04 03:06 | 42.75183 | -72.46275 | 12098 ft | 325 kts | 71° |
| 2026-05-04 03:06 | 42.75681 | -72.43287 | 11448 ft | 323 kts | 70° |
| 2026-05-04 03:06 | 42.76176 | -72.40313 | 10774 ft | 322 kts | 70° |
| 2026-05-04 03:07 | 42.76671 | -72.37340 | 10135 ft | 321 kts | 70° |
| 2026-05-04 03:07 | 42.77159 | -72.34396 | 9618 ft | 315 kts | 70° |
| 2026-05-04 03:07 | 42.77632 | -72.31524 | 9154 ft | 307 kts | 70° |
| 2026-05-04 03:07 | 42.78094 | -72.28721 | 8691 ft | 300 kts | 71° |
| 2026-05-04 03:08 | 42.78543 | -72.25999 | 8115 ft | 297 kts | 71° |
| 2026-05-04 03:08 | 42.79003 | -72.23220 | 7567 ft | 296 kts | 71° |
| 2026-05-04 03:08 | 42.79443 | -72.20547 | 7199 ft | 293 kts | 71° |
| 2026-05-04 03:08 | 42.79907 | -72.17753 | 7060 ft | 305 kts | 71° |
| 2026-05-04 03:09 | 42.80362 | -72.14969 | 7006 ft | 297 kts | 71° |
| 2026-05-04 03:09 | 42.80804 | -72.12257 | 6996 ft | 289 kts | 71° |
| 2026-05-04 03:09 | 42.81239 | -72.09595 | 7007 ft | 289 kts | 71° |
| 2026-05-04 03:09 | 42.81679 | -72.06910 | 7014 ft | 292 kts | 71° |
| 2026-05-04 03:10 | 42.82121 | -72.04202 | 7018 ft | 293 kts | 71° |
| 2026-05-04 03:10 | 42.82562 | -72.01488 | 7011 ft | 292 kts | 71° |
| 2026-05-04 03:10 | 42.82984 | -71.98780 | 7003 ft | 292 kts | 75° |
| 2026-05-04 03:10 | 42.83163 | -71.96013 | 7023 ft | 294 kts | 82° |
| 2026-05-04 03:11 | 42.83238 | -71.93223 | 7014 ft | 294 kts | 85° |
| 2026-05-04 03:11 | 42.83130 | -71.90427 | 6955 ft | 294 kts | 92° |
| 2026-05-04 03:11 | 42.82905 | -71.87723 | 6898 ft | 287 kts | 93° |
| 2026-05-04 03:11 | 42.82666 | -71.85060 | 6747 ft | 277 kts | 93° |
| 2026-05-04 03:12 | 42.82443 | -71.82500 | 6686 ft | 264 kts | 92° |
| 2026-05-04 03:12 | 42.82244 | -71.80069 | 6685 ft | 254 kts | 92° |
| 2026-05-04 03:12 | 42.82051 | -71.77633 | 6497 ft | 265 kts | 92° |
| 2026-05-04 03:12 | 42.81858 | -71.75165 | 6221 ft | 262 kts | 92° |
| 2026-05-04 03:13 | 42.81667 | -71.72715 | 5928 ft | 258 kts | 92° |
| 2026-05-04 03:13 | 42.81482 | -71.70309 | 5673 ft | 252 kts | 92° |
| 2026-05-04 03:13 | 42.81302 | -71.67961 | 5445 ft | 247 kts | 92° |
| 2026-05-04 03:13 | 42.81122 | -71.65613 | 5356 ft | 251 kts | 92° |
| 2026-05-04 03:14 | 42.80940 | -71.63238 | 5246 ft | 253 kts | 93° |
| 2026-05-04 03:14 | 42.80757 | -71.60862 | 5127 ft | 251 kts | 93° |
| 2026-05-04 03:14 | 42.80455 | -71.58555 | 4991 ft | 247 kts | 111° |
| 2026-05-04 03:14 | 42.79446 | -71.56703 | 4830 ft | 242 kts | 139° |
| 2026-05-04 03:15 | 42.78172 | -71.55170 | 4693 ft | 247 kts | 140° |
| 2026-05-04 03:15 | 42.76883 | -71.53610 | 4506 ft | 248 kts | 140° |
| 2026-05-04 03:15 | 42.75598 | -71.52047 | 4312 ft | 247 kts | 140° |
| 2026-05-04 03:15 | 42.74322 | -71.50490 | 4121 ft | 244 kts | 138° |
| 2026-05-04 03:16 | 42.73409 | -71.48610 | 3925 ft | 239 kts | 104° |
| 2026-05-04 03:16 | 42.73373 | -71.46401 | 3780 ft | 233 kts | 75° |
| 2026-05-04 03:16 | 42.73819 | -71.44267 | 3648 ft | 235 kts | 68° |
| 2026-05-04 03:16 | 42.74345 | -71.42165 | 3492 ft | 234 kts | 67° |
| 2026-05-04 03:17 | 42.74870 | -71.40073 | 3289 ft | 233 kts | 67° |
| 2026-05-04 03:17 | 42.75620 | -71.38201 | 3087 ft | 222 kts | 40° |
| 2026-05-04 03:17 | 42.76898 | -71.37185 | 3040 ft | 212 kts | 12° |
| 2026-05-04 03:17 | 42.78340 | -71.36804 | 3044 ft | 211 kts | 2° |
| 2026-05-04 03:18 | 42.79787 | -71.36562 | 3041 ft | 209 kts | 2° |
| 2026-05-04 03:18 | 42.81212 | -71.36587 | 2955 ft | 205 kts | 342° |
| 2026-05-04 03:18 | 42.82539 | -71.37150 | 2571 ft | 196 kts | 337° |
| 2026-05-04 03:18 | 42.83794 | -71.37820 | 2122 ft | 186 kts | 333° |
| 2026-05-04 03:19 | 42.84937 | -71.38496 | 1867 ft | 172 kts | 333° |
| 2026-05-04 03:19 | 42.85981 | -71.39114 | 1639 ft | 157 kts | 333° |
| 2026-05-04 03:19 | 42.86938 | -71.39680 | 1450 ft | 147 kts | 333° |
| 2026-05-04 03:19 | 42.87872 | -71.40234 | 1250 ft | 148 kts | 334° |
| 2026-05-04 03:20 | 42.88823 | -71.40796 | 1017 ft | 149 kts | 335° |
| 2026-05-04 03:20 | 42.89784 | -71.41363 | 801 ft | 151 kts | 336° |
| 2026-05-04 03:20 | 42.90748 | -71.41934 | 607 ft | 151 kts | 337° |
| 2026-05-04 03:20 | 42.91714 | -71.42503 | 397 ft | 151 kts | 338° |
| 2026-05-04 03:21 | 42.92663 | -71.43067 | 265 ft | 142 kts | 338° |
| 2026-05-04 03:21 | 42.93395 | -71.43493 | 247 ft | 68 kts | 337° |
| 2026-05-04 03:21 | 42.93654 | -71.43645 | 241 ft | 8 kts | 336° |
| 2026-05-04 03:21 | 42.93692 | -71.43668 | 241 ft | 0 kts | 336° |
| 2026-05-04 03:22 | 42.93757 | -71.43735 | 241 ft | 18 kts | 289° |
| 2026-05-04 03:22 | 42.93646 | -71.43809 | 242 ft | 30 kts | 150° |
| 2026-05-04 03:22 | 42.93473 | -71.43704 | 245 ft | 23 kts | 156° |
| 2026-05-04 03:23 | 42.93325 | -71.43613 | 249 ft | 23 kts | 155° |
| 2026-05-04 03:23 | 42.93233 | -71.43556 | 251 ft | 15 kts | 156° |
| 2026-05-04 03:23 | 42.93104 | -71.43482 | 254 ft | 18 kts | 157° |
| 2026-05-04 03:23 | 42.93034 | -71.43441 | 256 ft | 0 kts | 156° |
| 2026-05-04 03:24 | 42.92974 | -71.43419 | 257 ft | 16 kts | 178° |
| 2026-05-04 03:24 | 42.92922 | -71.43479 | 257 ft | 18 kts | 243° |
| 2026-05-04 03:24 | 42.92906 | -71.43602 | 255 ft | 15 kts | 298° |
| 2026-05-04 03:24 | 42.92919 | -71.43759 | 251 ft | 11 kts | 272° |
| 2026-05-04 03:25 | 42.92957 | -71.43784 | 250 ft | 9 kts | 20° |
| 2026-05-04 03:25 | 42.92978 | -71.43727 | 252 ft | 0 kts | 73° |
| 2026-05-04 03:25 | 42.92978 | -71.43726 | 252 ft | 0 kts | 73° |